createdAt,value
2019-06-20T00:04:15.765Z,18.60
2019-06-20T00:06:44.285Z,18.50
2019-06-20T00:09:12.932Z,18.50
2019-06-20T00:11:41.467Z,18.50
2019-06-20T00:21:34.425Z,18.60
2019-06-20T00:26:31.282Z,18.70
2019-06-20T00:28:59.706Z,18.60
2019-06-20T00:31:28.216Z,18.60
2019-06-20T00:36:24.835Z,18.60
2019-06-20T00:41:21.404Z,18.50
2019-06-20T00:43:49.829Z,18.50
2019-06-20T00:46:18.274Z,18.50
2019-06-20T00:51:14.858Z,18.50
2019-06-20T00:53:43.287Z,18.40
2019-06-20T00:56:11.723Z,18.40
2019-06-20T00:58:40.175Z,18.30
2019-06-20T01:01:08.684Z,18.40
2019-06-20T01:03:37.144Z,18.50
2019-06-20T01:06:05.574Z,18.50
2019-06-20T01:08:34.202Z,18.50
2019-06-20T01:13:34.119Z,18.50
2019-06-20T01:18:29.140Z,18.50
2019-06-20T01:23:25.727Z,18.60
2019-06-20T01:25:54.223Z,18.70
2019-06-20T01:28:22.669Z,18.60
2019-06-20T01:30:51.108Z,18.60
2019-06-20T01:33:19.803Z,18.80
2019-06-20T01:35:48.391Z,18.80
2019-06-20T01:38:16.857Z,18.80
2019-06-20T01:40:45.299Z,18.80
2019-06-20T01:45:42.153Z,18.80
2019-06-20T01:48:10.594Z,18.90
2019-06-20T01:50:39.031Z,18.90
2019-06-20T01:55:35.697Z,18.90
2019-06-20T01:58:04.359Z,18.80
2019-06-20T02:00:35.813Z,18.80
2019-06-20T02:03:04.417Z,18.70
2019-06-20T02:05:32.920Z,18.70
2019-06-20T02:10:29.781Z,18.70
2019-06-20T02:12:58.216Z,18.70
2019-06-20T02:15:26.894Z,18.60
2019-06-20T02:17:55.399Z,18.60
2019-06-20T02:20:32.503Z,18.60
2019-06-20T02:23:01.001Z,18.60
2019-06-20T02:25:29.519Z,18.70
2019-06-20T02:30:27.510Z,18.70
2019-06-20T02:32:55.941Z,18.60
2019-06-20T02:35:25.996Z,18.70
2019-06-20T02:37:54.582Z,18.50
2019-06-20T02:40:23.405Z,18.70
2019-06-20T02:42:51.976Z,18.60
2019-06-20T02:50:17.467Z,18.40
2019-06-20T02:52:46.000Z,18.40
2019-06-20T02:57:42.900Z,18.40
2019-06-20T03:00:11.991Z,18.40
2019-06-20T03:02:40.642Z,18.40
2019-06-20T03:05:10.471Z,18.40
2019-06-20T03:07:38.916Z,18.40
2019-06-20T03:10:07.611Z,18.40
2019-06-20T03:12:36.047Z,18.40
2019-06-20T03:15:06.059Z,18.50
2019-06-20T03:17:34.567Z,18.20
2019-06-20T03:20:03.976Z,18.30
2019-06-20T03:22:32.451Z,18.30
2019-06-20T03:25:00.946Z,18.30
2019-06-20T03:27:29.364Z,18.30
2019-06-20T03:32:25.928Z,18.30
2019-06-20T03:37:22.680Z,18.40
2019-06-20T03:39:51.189Z,18.40
2019-06-20T03:47:17.729Z,18.60
2019-06-20T03:49:46.211Z,18.60
2019-06-20T03:54:42.779Z,18.50
2019-06-20T03:57:11.289Z,18.60
2019-06-20T03:59:39.734Z,18.40
2019-06-20T04:02:08.197Z,18.50
2019-06-20T04:04:36.663Z,18.50
2019-06-20T04:07:05.128Z,18.50
2019-06-20T04:09:33.635Z,18.50
2019-06-20T04:12:02.183Z,18.40
2019-06-20T04:14:30.611Z,18.30
2019-06-20T04:16:59.064Z,18.40
2019-06-20T04:19:27.488Z,18.50
2019-06-20T04:21:55.967Z,18.40
2019-06-20T04:26:54.278Z,18.50
2019-06-20T04:29:22.723Z,18.60
2019-06-20T04:31:51.237Z,18.50
2019-06-20T04:36:48.226Z,18.50
2019-06-20T04:39:19.564Z,18.50
2019-06-20T04:41:46.985Z,18.60
2019-06-20T04:46:50.894Z,18.80
2019-06-20T04:49:19.911Z,18.70
2019-06-20T04:51:48.498Z,18.60
2019-06-20T04:54:16.972Z,18.50
2019-06-20T04:56:45.404Z,18.50
2019-06-20T04:59:13.882Z,18.40
2019-06-20T05:01:42.381Z,18.50
2019-06-20T05:04:10.892Z,18.60
2019-06-20T05:06:40.400Z,18.40
2019-06-20T05:09:09.063Z,18.40
2019-06-20T05:11:37.704Z,18.30
2019-06-20T05:14:06.237Z,18.40
2019-06-20T05:16:34.715Z,18.70
2019-06-20T05:19:03.178Z,18.60
2019-06-20T05:21:31.742Z,18.60
2019-06-20T05:24:00.381Z,18.70
2019-06-20T05:26:29.067Z,18.70
2019-06-20T05:31:25.764Z,19.00
2019-06-20T05:36:22.505Z,18.70
2019-06-20T05:38:50.930Z,18.90
2019-06-20T05:41:20.038Z,18.90
2019-06-20T05:43:48.505Z,18.90
2019-06-20T05:46:16.960Z,18.90
2019-06-20T05:48:45.418Z,18.80
2019-06-20T05:51:13.931Z,19.10
2019-06-20T05:53:42.384Z,19.00
2019-06-20T05:56:10.836Z,19.10
2019-06-20T05:58:39.285Z,19.10
2019-06-20T06:01:07.764Z,19.00
2019-06-20T06:03:36.257Z,19.10
2019-06-20T06:08:34.043Z,19.60
2019-06-20T06:11:02.623Z,19.60
2019-06-20T06:13:31.120Z,19.80
2019-06-20T06:16:00.255Z,20.00
2019-06-20T06:18:28.975Z,19.90
2019-06-20T06:20:57.438Z,20.00
2019-06-20T06:23:25.906Z,19.90
2019-06-20T06:25:54.333Z,20.00
2019-06-20T06:28:22.866Z,20.00
2019-06-20T06:30:51.307Z,20.30
2019-06-20T06:33:19.823Z,20.40
2019-06-20T06:35:48.418Z,20.20
2019-06-20T06:38:22.065Z,20.30
2019-06-20T06:40:47.226Z,20.50
2019-06-20T06:43:15.758Z,20.70
2019-06-20T06:45:44.347Z,21.00
2019-06-20T06:48:12.959Z,21.30
2019-06-20T06:50:41.419Z,21.70
2019-06-20T06:53:10.024Z,21.80
2019-06-20T06:55:38.615Z,21.60
2019-06-20T06:58:07.151Z,22.00
2019-06-20T07:00:35.587Z,21.90
2019-06-20T07:03:04.685Z,21.80
2019-06-20T07:05:33.136Z,21.80
2019-06-20T07:08:01.572Z,22.10
2019-06-20T07:12:58.377Z,22.80
2019-06-20T07:15:27.550Z,22.60
2019-06-20T07:20:24.189Z,22.50
2019-06-20T07:22:52.992Z,22.60
2019-06-20T07:25:21.557Z,22.80
2019-06-20T07:27:49.993Z,22.80
2019-06-20T07:30:18.905Z,22.80
2019-06-20T07:32:47.484Z,22.80
2019-06-20T07:37:44.477Z,23.10
2019-06-20T07:40:13.587Z,23.50
2019-06-20T07:42:42.016Z,23.70
2019-06-20T07:45:11.512Z,23.30
2019-06-20T07:47:40.257Z,23.50
2019-06-20T07:50:09.963Z,23.40
2019-06-20T07:52:38.443Z,23.40
2019-06-20T07:55:08.595Z,23.30
2019-06-20T07:57:37.085Z,23.10
2019-06-20T08:00:08.639Z,23.20
2019-06-20T08:02:37.133Z,23.20
2019-06-20T08:10:02.790Z,22.80
2019-06-20T08:17:35.408Z,23.40
2019-06-20T08:19:59.570Z,23.30
2019-06-20T08:30:11.836Z,24.40
2019-06-20T08:32:40.283Z,24.90
2019-06-20T08:40:08.605Z,24.60
2019-06-20T08:50:03.888Z,23.60
2019-06-20T08:52:32.511Z,23.20
2019-06-20T08:55:01.134Z,23.10
2019-06-20T08:57:29.748Z,23.10
2019-06-20T09:04:58.047Z,23.70
2019-06-20T09:09:55.867Z,23.70
2019-06-20T09:17:22.112Z,23.50
2019-06-20T09:19:51.715Z,23.50
2019-06-20T09:22:20.867Z,23.30
2019-06-20T09:24:49.299Z,23.00
2019-06-20T09:27:18.405Z,23.40
2019-06-20T09:29:46.939Z,23.60
2019-06-20T09:32:15.430Z,23.80
2019-06-20T09:37:11.997Z,23.90
2019-06-20T09:44:36.863Z,24.20
2019-06-20T09:49:34.484Z,25.10
2019-06-20T09:54:31.142Z,25.50
2019-06-20T09:56:59.738Z,25.30
2019-06-20T10:01:58.738Z,25.50
2019-06-20T10:04:26.896Z,25.00
2019-06-20T10:06:56.615Z,24.80
2019-06-20T10:09:25.208Z,24.70
2019-06-20T10:11:54.117Z,25.20
2019-06-20T10:14:23.944Z,25.10
2019-06-20T10:16:54.089Z,24.90
2019-06-20T10:19:22.564Z,25.40
2019-06-20T10:21:51.969Z,25.90
2019-06-20T10:24:20.515Z,25.60
2019-06-20T10:26:49.581Z,25.50
2019-06-20T10:31:47.912Z,25.20
2019-06-20T10:36:45.374Z,25.50
2019-06-20T10:39:14.875Z,25.60
2019-06-20T10:41:44.861Z,26.40
2019-06-20T10:44:13.522Z,26.30
2019-06-20T10:46:42.875Z,26.30
2019-06-20T10:49:12.185Z,26.30
2019-06-20T11:16:36.599Z,25.60
2019-06-20T11:19:05.275Z,25.50
2019-06-20T11:21:33.815Z,24.90
2019-06-20T11:24:02.284Z,25.00
2019-06-20T11:31:28.052Z,26.00
2019-06-20T11:33:56.533Z,26.40
2019-06-20T11:36:24.959Z,26.30
2019-06-20T11:38:53.490Z,26.60
2019-06-20T11:41:21.929Z,26.10
2019-06-20T11:46:18.523Z,25.70
2019-06-20T11:51:22.225Z,26.10
2019-06-20T11:53:50.888Z,25.70
2019-06-20T11:56:19.317Z,25.70
2019-06-20T11:58:47.763Z,25.20
2019-06-20T12:01:16.195Z,24.90
2019-06-20T12:06:13.271Z,24.70
2019-06-20T12:08:42.416Z,24.80
2019-06-20T12:13:40.377Z,24.70
2019-06-20T12:16:09.074Z,24.90
2019-06-20T12:18:38.681Z,24.80
2019-06-20T12:43:21.188Z,25.10
2019-06-20T12:45:49.694Z,25.10
2019-06-20T12:48:18.127Z,25.00
2019-06-20T12:55:45.770Z,24.50
2019-06-20T13:00:43.642Z,23.80
2019-06-20T13:03:12.834Z,23.30
2019-06-20T13:05:42.903Z,23.00
2019-06-20T13:08:13.627Z,22.90
2019-06-20T13:13:10.377Z,22.60
2019-06-20T13:15:39.118Z,22.10
2019-06-20T13:18:09.086Z,22.00
2019-06-20T13:23:07.538Z,21.10
2019-06-20T13:28:04.168Z,20.90
2019-06-20T13:33:00.793Z,20.70
2019-06-20T13:35:30.181Z,20.70
2019-06-20T13:40:26.813Z,21.10
2019-06-20T13:42:55.305Z,21.00
2019-06-20T13:50:23.933Z,22.20
2019-06-20T13:52:52.552Z,22.80
2019-06-20T13:57:49.516Z,23.50
2019-06-20T14:00:20.580Z,23.60
2019-06-20T14:05:19.236Z,23.40
2019-06-20T14:07:51.886Z,23.00
2019-06-20T14:17:44.973Z,22.30
2019-06-20T14:20:14.504Z,22.00
2019-06-20T14:22:43.027Z,22.10
2019-06-20T14:25:11.822Z,22.00
2019-06-20T14:27:40.280Z,22.00
2019-06-20T14:30:10.315Z,22.10
2019-06-20T14:32:38.755Z,22.00
2019-06-20T14:35:07.584Z,21.80
2019-06-20T14:37:36.015Z,21.50
2019-06-20T14:42:34.157Z,21.60
2019-06-20T14:45:03.512Z,21.60
2019-06-20T14:50:00.159Z,21.90
2019-06-20T14:52:28.755Z,21.80
2019-06-20T14:54:57.212Z,22.20
2019-06-20T14:57:25.708Z,22.00
2019-06-20T14:59:54.411Z,21.80
2019-06-20T15:02:37.618Z,21.70
2019-06-20T15:07:22.996Z,21.20
2019-06-20T15:09:51.524Z,21.00
2019-06-20T15:12:19.975Z,20.80
2019-06-20T15:14:49.807Z,20.90
2019-06-20T15:17:18.589Z,20.80
2019-06-20T15:19:47.831Z,20.90
2019-06-20T15:24:46.733Z,21.40
2019-06-20T15:27:15.149Z,21.30
2019-06-20T15:32:11.707Z,21.70
2019-06-20T15:34:40.156Z,21.60
2019-06-20T15:39:36.810Z,21.50
2019-06-20T15:42:05.348Z,22.00
2019-06-20T15:44:33.775Z,21.60
2019-06-20T15:47:02.227Z,22.10
2019-06-20T15:49:30.669Z,22.20
2019-06-20T15:51:59.333Z,22.00
2019-06-20T15:54:27.824Z,22.60
2019-06-20T15:56:56.387Z,22.80
2019-06-20T15:59:24.869Z,22.70
2019-06-20T16:01:53.475Z,23.10
2019-06-20T16:06:50.226Z,23.10
2019-06-20T16:11:47.029Z,22.90
2019-06-20T16:14:18.015Z,23.00
2019-06-20T16:16:45.744Z,22.80
2019-06-20T16:21:42.339Z,22.80
2019-06-20T16:24:12.752Z,23.40
2019-06-20T16:26:41.099Z,23.10
2019-06-20T16:29:09.603Z,23.50
2019-06-20T16:41:30.772Z,22.30
2019-06-20T16:43:59.404Z,22.00
2019-06-20T16:46:27.861Z,21.80
2019-06-20T16:51:24.503Z,22.10
2019-06-20T16:53:52.970Z,21.60
2019-06-20T16:56:21.477Z,21.60
2019-06-20T17:01:18.097Z,21.90
2019-06-20T17:03:46.613Z,22.00
2019-06-20T17:06:15.158Z,21.70
2019-06-20T17:08:43.635Z,22.10
2019-06-20T17:13:40.349Z,22.00
2019-06-20T17:23:33.342Z,22.20
2019-06-20T17:26:01.965Z,21.90
2019-06-20T17:28:30.517Z,21.70
2019-06-20T17:38:23.559Z,22.20
2019-06-20T17:43:20.304Z,21.60
2019-06-20T17:45:48.818Z,21.80
2019-06-20T17:58:10.491Z,21.30
2019-06-20T18:00:39.285Z,21.40
2019-06-20T18:05:36.123Z,21.10
2019-06-20T18:08:14.711Z,21.60
2019-06-20T18:10:35.053Z,20.90
2019-06-20T18:15:33.815Z,21.00
2019-06-20T18:20:30.987Z,21.10
2019-06-20T18:27:55.773Z,21.10
2019-06-20T18:37:50.454Z,20.90
2019-06-20T18:40:19.100Z,21.10
2019-06-20T18:42:47.706Z,20.70
2019-06-20T18:50:13.729Z,21.00
2019-06-20T18:52:51.616Z,20.90
2019-06-20T18:57:40.947Z,20.70
2019-06-20T19:00:14.857Z,20.80
2019-06-20T19:02:43.670Z,20.50
2019-06-20T19:05:12.831Z,20.70
2019-06-20T19:12:39.627Z,20.60
2019-06-20T19:15:08.704Z,21.00
2019-06-20T19:25:04.084Z,19.90
2019-06-20T19:30:04.121Z,19.70
2019-06-20T19:32:32.636Z,20.60
2019-06-20T19:37:30.932Z,19.50
2019-06-20T19:39:59.368Z,19.90
2019-06-20T19:42:27.828Z,20.60
2019-06-20T19:44:56.290Z,19.80
2019-06-20T19:47:24.933Z,19.60
2019-06-20T19:54:49.805Z,19.00
2019-06-20T19:57:18.316Z,19.50
2019-06-20T19:59:46.940Z,19.20
2019-06-20T20:02:15.387Z,19.20
2019-06-20T20:04:43.991Z,19.10
2019-06-20T20:12:08.949Z,18.60
2019-06-20T20:14:37.466Z,18.90
2019-06-20T20:22:05.830Z,18.40
2019-06-20T20:24:32.519Z,18.30
2019-06-20T20:27:00.962Z,18.50
2019-06-20T20:29:29.498Z,18.60
2019-06-20T20:31:58.036Z,18.60
2019-06-20T20:34:26.622Z,18.10
2019-06-20T20:39:23.376Z,18.30
2019-06-20T20:41:51.903Z,17.80
2019-06-20T20:44:20.372Z,18.40
2019-06-20T20:49:17.040Z,17.90
2019-06-20T21:01:38.322Z,18.00
2019-06-20T21:04:06.772Z,17.90
2019-06-20T21:06:35.404Z,17.40
2019-06-20T21:09:04.803Z,17.80
2019-06-20T21:11:33.271Z,17.80
2019-06-20T21:14:02.047Z,18.10
2019-06-20T21:16:30.580Z,17.90
2019-06-20T21:18:59.026Z,17.70
2019-06-20T21:21:27.742Z,17.40
2019-06-20T21:26:24.592Z,17.10
2019-06-20T21:28:53.350Z,17.50
2019-06-20T21:31:22.008Z,17.90
2019-06-20T21:33:54.064Z,17.80
2019-06-20T21:36:20.652Z,17.20
2019-06-20T21:41:17.511Z,17.50
2019-06-20T21:43:46.071Z,17.10
2019-06-20T21:46:14.504Z,17.10
2019-06-20T21:48:43.052Z,17.60
2019-06-20T21:51:11.622Z,17.20
2019-06-20T21:53:40.108Z,17.00
2019-06-20T21:56:08.546Z,17.60
2019-06-20T21:58:37.043Z,16.80
2019-06-20T22:01:06.682Z,17.20
2019-06-20T22:06:03.569Z,17.60
2019-06-20T22:08:32.183Z,17.20
2019-06-20T22:11:00.693Z,17.40
2019-06-20T22:13:29.219Z,17.70
2019-06-20T22:15:57.769Z,17.30
2019-06-20T22:18:26.315Z,17.80
2019-06-20T22:20:54.760Z,17.50
2019-06-20T22:28:21.646Z,17.80
2019-06-20T22:30:54.882Z,17.60
2019-06-20T22:35:51.611Z,17.50
2019-06-20T22:38:20.142Z,17.30
2019-06-20T22:45:44.976Z,17.90
2019-06-20T22:50:42.098Z,17.70
2019-06-20T22:53:10.723Z,18.20
2019-06-20T22:58:07.469Z,17.70
2019-06-20T23:00:36.024Z,17.20
2019-06-20T23:03:05.427Z,17.60
2019-06-20T23:05:34.160Z,17.50
2019-06-20T23:08:02.851Z,17.80
2019-06-20T23:10:31.383Z,17.60
2019-06-20T23:12:59.836Z,17.50
2019-06-20T23:17:56.408Z,17.00
2019-06-20T23:20:25.119Z,17.30
2019-06-20T23:22:53.549Z,17.50
2019-06-20T23:27:50.300Z,17.30
2019-06-20T23:32:47.437Z,17.10
2019-06-20T23:35:16.253Z,17.00
2019-06-20T23:37:44.679Z,16.60
2019-06-20T23:40:14.583Z,17.20
2019-06-20T23:42:43.166Z,16.70
2019-06-20T23:45:12.375Z,16.80
2019-06-20T23:47:40.805Z,17.40
2019-06-20T23:50:11.942Z,16.90
2019-06-20T23:52:44.950Z,17.30
2019-06-20T23:55:13.459Z,17.00
2019-06-20T23:57:41.901Z,17.50
